Time;durP1;ratioP1;P1;durP2;ratioP2;P2;SDS_P1;SDS_P2;PMS_P1;PMS_P2;Temp;Humidity;BMP_temperature;BMP_pressure;BME280_temperature;BME280_humidity;BME280_pressure;Samples;Min_cycle;Max_cycle;Signal;HPM_P1;HPM_P2
2021/05/27 00:00:16;;;;;;;27.70;13.98;;;11.60;99.90;;;11.95;84.20;101406.06;5076940;28;20130;-70
2021/05/27 00:02:45;;;;;;;31.70;13.48;;;11.70;99.90;;;11.86;84.27;101411.41;5095232;28;20056;-72
2021/05/27 00:05:14;;;;;;;27.73;14.07;;;11.70;99.90;;;11.89;84.46;101406.09;5095026;28;20093;-70
2021/05/27 00:07:42;;;;;;;33.15;13.80;;;11.70;99.90;;;11.76;84.34;101418.47;5095110;28;20433;-70
2021/05/27 00:10:15;;;;;;;30.05;13.82;;;11.70;99.90;;;11.86;84.03;101403.44;5094805;28;20127;-71
2021/05/27 00:12:44;;;;;;;32.08;13.60;;;11.70;99.90;;;11.79;84.08;101414.06;5094662;28;20040;-70
2021/05/27 00:15:15;;;;;;;37.17;13.90;;;11.70;99.90;;;11.84;84.65;101415.81;5094845;28;20052;-70
2021/05/27 00:17:43;;;;;;;42.47;14.70;;;11.70;99.90;;;11.88;84.75;101425.53;5094655;28;20396;-70
2021/05/27 00:20:13;;;;;;;37.03;14.80;;;11.70;99.90;;;11.81;84.62;101426.44;5094381;28;20381;-71
2021/05/27 00:22:41;;;;;;;32.85;13.98;;;11.70;99.90;;;11.70;84.95;101429.97;5094766;28;20083;-71
2021/05/27 00:25:11;;;;;;;30.17;13.18;;;11.60;99.90;;;11.74;84.60;101418.50;5094315;28;20064;-70
2021/05/27 00:27:40;;;;;;;26.50;13.02;;;11.60;99.90;;;11.68;84.52;101423.78;5093571;28;20047;-70
2021/05/27 00:30:11;;;;;;;29.95;13.23;;;11.50;99.90;;;11.70;84.45;101410.53;5094596;28;20129;-70
2021/05/27 00:32:39;;;;;;;27.73;13.23;;;11.50;99.90;;;11.62;84.51;101410.50;5094325;28;20044;-70
2021/05/27 00:35:09;;;;;;;35.20;13.93;;;11.50;99.90;;;11.64;84.53;101421.97;5094492;28;20044;-71
2021/05/27 00:37:38;;;;;;;32.67;13.32;;;11.50;99.90;;;11.53;85.06;101418.44;5094389;28;20048;-71
2021/05/27 00:40:11;;;;;;;35.78;13.93;;;11.50;99.90;;;11.55;85.59;101405.19;5094143;28;20036;-70
2021/05/27 00:42:40;;;;;;;26.65;13.40;;;11.40;99.90;;;11.51;85.19;101388.44;5094366;28;20098;-70
2021/05/27 00:45:11;;;;;;;30.02;13.40;;;11.50;99.90;;;11.67;84.75;101424.66;5076103;28;20085;-72
2021/05/27 00:47:40;;;;;;;26.25;12.85;;;11.50;99.90;;;11.61;85.21;101429.06;5094256;28;20040;-70
2021/05/27 00:50:20;;;;;;;29.20;12.93;;;11.40;99.90;;;11.61;84.77;101419.31;5094164;28;20097;-71
2021/05/27 00:52:50;;;;;;;28.45;11.90;;;11.50;99.90;;;11.73;84.54;101424.66;5094008;28;20131;-72
2021/05/27 00:55:21;;;;;;;32.73;12.33;;;11.50;99.90;;;11.65;84.60;101431.72;5094286;28;20374;-71
2021/05/27 00:57:49;;;;;;;32.17;12.98;;;11.50;99.90;;;11.79;84.52;101429.97;5094395;28;20778;-71
2021/05/27 01:00:22;;;;;;;26.15;12.43;;;11.60;99.90;;;11.68;84.63;101439.69;5075778;28;20044;-70
2021/05/27 01:02:50;;;;;;;31.10;13.10;;;11.60;99.90;;;11.74;84.38;101442.34;5093919;28;20079;-71
2021/05/27 01:05:19;;;;;;;27.55;11.63;;;11.60;99.90;;;11.74;84.19;101446.75;5093955;28;20055;-70
2021/05/27 01:07:47;;;;;;;31.23;11.73;;;11.60;99.90;;;11.74;84.52;101442.34;5093703;28;20044;-70
2021/05/27 01:10:21;;;;;;;30.70;12.60;;;11.60;99.90;;;11.76;84.79;101445.88;5075542;28;20048;-70
2021/05/27 01:12:50;;;;;;;32.33;13.27;;;11.60;99.90;;;11.70;85.23;101442.31;5075480;28;20048;-71
2021/05/27 01:15:29;;;;;;;35.83;13.65;;;11.50;99.90;;;11.52;85.83;101439.63;5075419;28;20083;-70
2021/05/27 01:18:01;;;;;;;33.33;12.93;;;11.50;99.90;;;11.43;86.36;101444.91;5093401;28;20573;-70
2021/05/27 01:20:30;;;;;;;28.20;12.30;;;11.30;99.90;;;11.49;85.89;101444.94;5093479;28;20112;-70
2021/05/27 01:23:01;;;;;;;34.67;12.82;;;11.30;99.90;;;11.70;85.63;101451.16;5093634;28;20052;-70
2021/05/27 01:25:29;;;;;;;;;;;11.50;99.90;;;11.73;85.26;101453.81;5075720;28;20066;-70
2021/05/27 01:27:58;;;;;;;32.50;11.60;;;11.50;99.90;;;11.50;85.34;101436.97;5075134;28;20016;-71
2021/05/27 01:30:26;;;;;;;29.27;12.27;;;11.40;99.90;;;11.54;85.21;101427.25;5075481;28;20079;-71
2021/05/27 01:32:55;;;;;;;37.53;12.50;;;11.50;99.90;;;11.67;85.18;101447.63;5075425;28;20072;-70
2021/05/27 01:35:26;;;;;;;36.25;13.80;;;11.50;99.90;;;11.78;85.20;101457.38;5093212;28;20101;-70
2021/05/27 01:37:55;;;;;;;28.15;11.70;;;11.60;99.90;;;11.65;85.28;101457.31;5093380;28;20044;-70
2021/05/27 01:40:26;;;;;;;29.90;12.45;;;11.60;99.90;;;11.63;85.47;101448.47;5093108;28;20047;-70
2021/05/27 01:42:55;;;;;;;;;;;11.50;99.90;;;11.46;85.85;101429.91;5075432;28;20435;-71
2021/05/27 01:45:24;;;;;;;28.30;11.55;;;11.50;99.90;;;11.60;85.69;101456.41;5074822;28;19924;-71
2021/05/27 01:47:54;;;;;;;29.17;11.63;;;11.40;99.90;;;10.95;85.31;101342.47;5092686;28;20097;-70
2021/05/27 01:50:22;;;;;;;30.55;12.75;;;11.50;99.90;;;11.55;84.39;101453.78;5092860;28;20051;-70
2021/05/27 01:52:56;;;;;;;37.30;11.13;;;11.40;99.90;;;11.30;85.21;101412.25;5074735;28;20125;-70
2021/05/27 01:55:30;;;;;;;28.58;10.98;;;11.40;99.90;;;11.63;84.97;101451.13;5074740;28;20506;-71
2021/05/27 01:57:59;;;;;;;30.85;12.07;;;11.50;99.90;;;11.56;85.08;101458.19;5074615;28;20043;-71
2021/05/27 02:00:29;;;;;;;37.85;11.48;;;11.40;99.90;;;11.43;85.43;101455.50;5074771;28;20480;-70
2021/05/27 02:02:58;;;;;;;26.40;10.98;;;11.30;99.90;;;11.46;85.25;101459.03;5092779;28;20040;-70
2021/05/27 02:05:31;;;;;;;34.05;11.25;;;11.30;99.90;;;11.36;86.06;101459.91;5092900;28;20377;-70
2021/05/27 02:08:01;;;;;;;30.92;11.65;;;11.30;99.90;;;11.49;85.89;101464.38;5092824;28;20040;-69
2021/05/27 02:10:39;;;;;;;32.75;12.00;;;11.30;99.90;;;11.48;85.20;101461.69;5074198;28;20074;-69
2021/05/27 02:13:09;;;;;;;35.42;11.25;;;11.40;99.90;;;11.41;85.79;101450.22;5074518;28;20051;-69
2021/05/27 02:15:39;;;;;;;29.35;11.43;;;11.30;99.90;;;11.47;85.32;101455.53;5074436;28;20048;-69
2021/05/27 02:18:08;;;;;;;;;;;11.30;99.90;;;11.51;85.61;101452.00;5075024;28;20044;-70
2021/05/27 02:20:38;;;;;;;27.40;10.43;;;11.40;99.90;;;11.58;84.96;101463.47;5074496;28;19920;-69
2021/05/27 02:23:06;;;;;;;33.40;12.38;;;11.40;99.90;;;11.51;85.01;101452.00;5074184;28;20139;-70
2021/05/27 02:25:55;;;;;;;43.17;12.73;;;11.40;99.90;;;11.58;85.24;101463.47;5091740;28;20408;-69
2021/05/27 02:28:42;;;;;;;34.63;12.00;;;11.40;99.90;;;11.45;85.60;101457.28;5074260;28;20139;-69
2021/05/27 02:31:13;;;;;;;31.13;11.02;;;11.40;99.90;;;11.45;85.79;101461.69;5074414;28;20109;-69
2021/05/27 02:33:47;;;;;;;34.33;11.00;;;11.30;99.90;;;11.37;85.57;101461.69;5092254;28;20059;-69
2021/05/27 02:36:27;;;;;;;31.58;11.10;;;11.30;99.90;;;11.42;85.62;101459.06;5074273;28;20040;-69
2021/05/27 02:38:58;;;;;;;26.25;10.60;;;11.30;99.90;;;11.46;85.13;101466.09;5092332;28;20052;-69
2021/05/27 02:41:37;;;;;;;38.80;12.17;;;11.30;99.90;;;11.49;85.05;101467.00;5074254;28;20036;-69
2021/05/27 02:44:07;;;;;;;31.50;11.25;;;11.40;99.90;;;11.49;84.31;101460.81;5092269;28;20051;-69
2021/05/27 02:46:41;;;;;;;29.63;11.57;;;11.40;99.90;;;11.47;84.41;101474.09;5074399;28;20101;-69
2021/05/27 02:49:11;;;;;;;44.20;12.40;;;11.30;99.90;;;11.55;84.52;101477.63;5092198;28;20048;-69
2021/05/27 02:51:43;;;;;;;33.10;12.35;;;11.40;99.90;;;11.58;84.24;101467.00;5094873;28;20055;-69
2021/05/27 02:54:11;;;;;;;28.75;11.15;;;11.40;99.90;;;11.75;84.20;101481.19;5077827;28;20071;-69
2021/05/27 02:56:42;;;;;;;29.90;11.70;;;11.50;99.90;;;11.57;84.02;101472.31;5077757;28;20048;-69
2021/05/27 02:59:13;;;;;;;30.25;11.05;;;11.50;99.90;;;11.60;83.90;101469.66;5078127;28;20617;-69
2021/05/27 03:01:42;;;;;;;28.98;11.32;;;11.50;99.90;;;11.48;84.42;101473.19;5096183;28;20047;-69
2021/05/27 03:04:11;;;;;;;26.20;9.93;;;11.40;99.90;;;11.49;84.31;101474.06;5078120;28;20198;-71
2021/05/27 03:06:40;;;;;;;33.10;10.65;;;11.30;99.90;;;11.58;83.74;101467.00;5096091;28;20044;-70
2021/05/27 03:09:10;;;;;;;37.72;11.75;;;11.40;99.90;;;11.49;83.83;101477.63;5095567;28;20048;-71
2021/05/27 03:11:38;;;;;;;33.28;11.23;;;11.30;99.90;;;11.51;83.84;101462.59;5077820;28;20402;-70
2021/05/27 03:14:08;;;;;;;24.42;10.90;;;11.40;99.90;;;11.51;83.86;101475.84;5096044;28;20028;-69
2021/05/27 03:16:48;;;;;;;35.53;10.77;;;11.40;99.90;;;11.38;84.11;101471.38;5095974;28;20389;-69
2021/05/27 03:19:17;;;;;;;30.05;10.57;;;11.30;99.90;;;11.21;84.30;101454.59;5077629;28;20044;-70
2021/05/27 03:21:47;;;;;;;30.38;11.02;;;11.20;99.90;;;11.52;84.29;101469.66;5095566;28;20048;-70
2021/05/27 03:24:16;;;;;;;;;;;11.40;99.90;;;11.42;84.69;101457.28;5077992;28;20044;-72
2021/05/27 03:26:44;;;;;;;28.83;11.15;;;11.30;99.90;;;11.65;84.63;101474.13;5095322;28;20002;-70
2021/05/27 03:29:14;;;;;;;32.35;12.85;;;11.50;99.90;;;11.50;85.09;101474.06;5077528;28;20409;-70
2021/05/27 03:31:44;;;;;;;38.10;12.05;;;11.40;99.90;;;11.47;85.29;101479.38;5077408;28;20424;-70
2021/05/27 03:34:13;;;;;;;37.80;11.95;;;11.40;99.90;;;11.50;85.91;101489.06;5077422;28;20047;-70
2021/05/27 03:36:41;;;;;;;36.67;13.40;;;11.30;99.90;;;11.60;85.58;101485.56;5077296;28;20063;-70
2021/05/27 03:39:11;;;;;;;35.13;12.73;;;11.40;99.90;;;11.67;85.12;101477.66;5076883;28;20585;-70
2021/05/27 03:41:39;;;;;;;28.85;12.32;;;11.50;99.90;;;11.59;85.01;101471.41;5077040;28;20147;-70
2021/05/27 03:44:10;;;;;;;36.17;12.95;;;11.50;99.90;;;11.71;84.55;101487.38;5077339;28;20375;-70
2021/05/27 03:46:44;;;;;;;32.75;12.25;;;11.50;99.90;;;11.75;84.04;101475.91;5077411;28;20390;-70
2021/05/27 03:49:13;;;;;;;36.78;12.38;;;11.60;99.90;;;11.75;83.77;101486.50;5095186;28;20048;-70
2021/05/27 03:51:41;;;;;;;36.85;13.02;;;11.60;99.90;;;11.62;84.13;101482.03;5077046;28;20044;-70
2021/05/27 03:54:10;;;;;;;36.80;11.82;;;11.50;99.90;;;11.64;84.47;101482.03;5076832;28;20097;-70
2021/05/27 03:56:38;;;;;;;27.13;11.85;;;11.50;99.90;;;11.71;84.31;101483.88;5076646;28;20047;-70
2021/05/27 04:02:11;;;;;;;34.13;12.98;;;11.60;99.90;;;11.60;85.63;101481.16;5094995;28;20109;-70
2021/05/27 04:07:40;;;;;;;33.17;11.90;;;11.50;99.90;;;11.61;85.71;101479.41;5094941;28;20050;-71
2021/05/27 04:10:09;;;;;;;32.13;12.68;;;11.50;99.90;;;11.50;86.18;101473.19;5076501;28;20044;-68
2021/05/27 04:12:47;;;;;;;35.63;13.07;;;11.50;99.90;;;11.63;86.56;101489.09;5094475;28;20052;-70
2021/05/27 04:15:22;;;;;;;36.30;13.30;;;11.50;99.90;;;11.58;87.18;101488.22;5094962;28;20051;-72
2021/05/27 04:17:56;;;;;;;28.50;13.82;;;11.40;99.90;;;11.68;87.52;101486.50;5094714;28;20044;-72
2021/05/27 04:20:27;;;;;;;30.23;13.00;;;11.50;99.90;;;11.73;87.42;101493.56;5094541;28;20043;-72
2021/05/27 04:22:55;;;;;;;;;;;11.50;99.90;;;11.73;87.53;101492.66;5094985;28;20048;-71
2021/05/27 04:25:25;;;;;;;36.90;13.82;;;11.60;99.90;;;11.72;87.48;101491.81;5094372;28;19967;-72
2021/05/27 04:27:54;;;;;;;34.00;12.27;;;11.60;99.90;;;11.64;87.95;101488.22;5094654;28;20036;-76
2021/05/27 04:30:24;;;;;;;38.78;12.85;;;11.50;99.90;;;11.59;88.32;101495.25;5094482;28;20105;-78
2021/05/27 04:32:57;;;;;;;27.40;11.43;;;11.50;99.90;;;11.58;88.20;101477.63;5094416;28;20059;-77
2021/05/27 04:35:33;;;;;;;37.05;12.52;;;11.50;99.90;;;11.71;88.45;101484.72;5094268;28;20387;-77
2021/05/27 04:38:05;;;;;;;33.50;12.15;;;11.50;99.90;;;11.49;88.61;101472.31;5094067;28;20036;-77
2021/05/27 04:40:34;;;;;;;31.08;12.10;;;11.50;99.90;;;10.93;88.20;101386.59;5076312;28;20523;-72
2021/05/27 04:43:02;;;;;;;31.50;12.95;;;11.40;99.90;;;11.48;88.44;101490.84;5094334;28;20094;-74
2021/05/27 04:45:31;;;;;;;38.13;12.20;;;11.40;99.90;;;10.93;88.13;101375.09;5094052;28;20105;-74
2021/05/27 04:48:04;;;;;;;34.42;12.55;;;11.40;99.90;;;11.45;88.13;101493.50;5059432;28;20048;-74
2021/05/27 04:50:32;;;;;;;30.63;12.43;;;11.30;99.90;;;11.48;87.95;101498.78;5075852;28;20378;-73
2021/05/27 04:53:00;;;;;;;31.45;12.75;;;11.30;99.90;;;11.55;88.01;101511.19;5093864;28;20047;-74
2021/05/27 04:55:32;;;;;;;30.85;13.10;;;11.30;99.90;;;11.56;86.92;101503.22;5093925;28;20097;-73
2021/05/27 04:58:00;;;;;;;44.25;12.85;;;11.40;99.90;;;11.50;86.79;101505.84;5075837;28;20050;-74
2021/05/27 05:00:29;;;;;;;26.42;12.10;;;11.30;99.90;;;11.44;86.91;101499.69;5093952;28;20048;-74
2021/05/27 05:02:59;;;;;;;29.48;11.75;;;11.30;99.90;;;11.53;86.90;101512.94;5093639;28;20048;-74
2021/05/27 05:05:29;;;;;;;32.53;12.48;;;11.40;99.90;;;11.51;86.91;101518.25;5093994;28;20044;-73
2021/05/27 05:07:57;;;;;;;32.08;11.30;;;11.30;99.90;;;11.44;86.96;101504.97;5093911;28;20055;-73
2021/05/27 05:10:27;;;;;;;34.45;12.30;;;11.30;99.90;;;11.56;86.65;101518.22;5093597;28;20048;-74
2021/05/27 05:12:56;;;;;;;24.40;10.48;;;11.40;99.90;;;11.63;86.04;101517.38;5093527;28;20052;-73
2021/05/27 05:15:26;;;;;;;32.33;11.80;;;11.40;99.90;;;11.67;85.91;101527.13;5093523;28;20040;-73
2021/05/27 05:17:56;;;;;;;30.77;11.82;;;11.50;99.90;;;11.72;85.87;101533.31;5093452;28;20074;-73
2021/05/27 05:20:27;;;;;;;30.45;11.65;;;11.50;99.90;;;11.61;85.88;101529.75;5093370;28;20382;-73
2021/05/27 05:22:56;;;;;;;28.27;11.95;;;11.50;99.90;;;11.66;86.21;101528.91;5093584;28;20049;-74
2021/05/27 05:25:26;;;;;;;31.77;11.07;;;11.50;99.90;;;11.77;85.43;101524.50;5092884;28;20489;-73
2021/05/27 05:27:55;;;;;;;32.33;11.57;;;11.60;99.90;;;11.48;85.30;101526.16;5093280;28;20385;-74
2021/05/27 05:30:25;;;;;;;29.33;12.40;;;11.40;99.90;;;11.73;85.61;101541.25;5093689;28;20253;-73
2021/05/27 05:32:55;;;;;;;32.28;11.75;;;11.50;99.90;;;11.72;85.55;101542.16;5075261;28;20056;-74
2021/05/27 05:35:25;;;;;;;35.90;12.48;;;11.50;99.90;;;11.67;85.33;101538.59;5092986;28;20067;-74
2021/05/27 05:37:54;;;;;;;32.40;12.23;;;11.50;99.90;;;11.67;85.45;101540.38;5093299;28;20044;-74
2021/05/27 05:40:24;;;;;;;34.83;12.25;;;11.50;99.90;;;11.78;85.59;101549.22;5074933;28;20055;-74
2021/05/27 05:42:53;;;;;;;32.13;10.90;;;11.60;99.90;;;11.72;85.80;101547.47;5093415;28;20044;-74
2021/05/27 05:45:21;;;;;;;35.53;11.82;;;11.60;99.90;;;11.52;86.09;101525.28;5093028;28;20160;-74
2021/05/27 05:47:54;;;;;;;31.98;11.15;;;11.50;99.90;;;11.54;86.34;101554.44;5093192;28;20051;-74
2021/05/27 05:53:09;;;;;;;25.33;10.73;;;11.50;99.90;;;11.58;85.68;101550.91;5073642;28;20476;-74
2021/05/27 05:55:37;;;;;;;22.67;9.75;;;11.50;99.90;;;11.59;85.27;101548.25;5092862;28;20040;-74
2021/05/27 05:58:06;;;;;;;26.42;10.75;;;11.40;99.90;;;11.56;85.23;101560.63;5092991;28;20112;-74
2021/05/27 06:00:35;;;;;;;29.00;10.52;;;11.40;99.90;;;11.55;85.27;101570.38;5092975;28;20159;-74
2021/05/27 06:03:05;;;;;;;26.58;10.77;;;11.40;99.90;;;11.62;85.42;101564.19;5092541;28;20500;-75
2021/05/27 06:06:05;;;;;;;27.48;10.50;;;11.50;99.90;;;11.69;85.30;101568.63;5069298;28;20417;-73
2021/05/27 06:08:56;;;;;;;23.13;10.02;;;11.60;99.90;;;11.58;84.79;101583.59;5091953;28;20147;-73
2021/05/27 06:11:24;;;;;;;29.17;10.63;;;11.50;99.90;;;11.75;84.73;101581.91;5092676;28;20043;-73
2021/05/27 06:13:53;;;;;;;21.20;9.70;;;11.60;99.90;;;11.72;84.72;101583.66;5092588;28;20105;-73
2021/05/27 06:16:22;;;;;;;21.38;8.98;;;11.60;99.90;;;11.72;84.43;101576.63;5092664;28;20048;-73
2021/05/27 06:18:50;;;;;;;26.73;10.27;;;11.60;99.90;;;11.57;84.17;101587.16;5092663;28;20047;-73
2021/05/27 06:21:50;;;;;;;26.52;10.77;;;11.50;99.90;;;11.57;84.24;101565.94;5085558;28;20481;-74
2021/05/27 06:24:28;;;;;;;20.85;10.18;;;11.50;99.90;;;11.74;83.87;101589.88;5074321;28;20467;-74
2021/05/27 06:26:56;;;;;;;19.42;9.95;;;11.60;99.90;;;11.63;83.85;101591.56;5091705;28;20046;-73
2021/05/27 06:29:24;;;;;;;25.42;10.63;;;11.50;99.90;;;11.66;83.88;101589.84;5092119;28;20456;-74
2021/05/27 06:31:52;;;;;;;28.50;9.70;;;11.50;99.90;;;11.46;84.21;101585.31;5092605;28;20396;-73
2021/05/27 06:34:20;;;;;;;33.00;11.38;;;11.40;99.90;;;11.52;84.06;101591.53;5092537;28;20047;-73
2021/05/27 06:36:48;;;;;;;24.98;10.50;;;11.30;99.90;;;11.50;84.59;101593.28;5074346;28;20521;-73
2021/05/27 06:39:16;;;;;;;26.70;11.30;;;11.40;99.90;;;11.59;83.81;101590.66;5092483;28;20044;-74
2021/05/27 06:41:45;;;;;;;26.73;10.32;;;11.50;99.90;;;11.69;83.50;101597.78;5092234;28;20062;-74
2021/05/27 06:44:13;;;;;;;21.77;10.07;;;11.50;99.90;;;11.73;83.04;101596.03;5092359;28;20362;-74
2021/05/27 06:46:41;;;;;;;20.52;9.23;;;11.60;99.90;;;11.74;83.02;101600.47;5074203;28;20040;-74
2021/05/27 06:49:09;;;;;;;26.60;9.65;;;11.60;99.90;;;11.62;82.68;101571.25;5090916;28;20075;-74
2021/05/27 06:51:37;;;;;;;26.30;9.10;;;11.60;99.90;;;11.74;83.16;101597.81;5092328;28;20105;-74
2021/05/27 06:54:06;;;;;;;31.38;9.85;;;11.60;99.90;;;11.88;82.75;101596.09;5091989;28;20048;-73
2021/05/27 06:56:34;;;;;;;25.30;9.38;;;11.70;99.90;;;11.81;82.71;101602.22;5092054;28;20101;-73
2021/05/27 06:59:03;;;;;;;22.88;9.38;;;11.70;99.90;;;11.75;82.08;101602.22;5092230;28;20472;-73
2021/05/27 07:01:31;;;;;;;20.50;9.13;;;11.70;99.90;;;11.87;82.22;101604.00;5092231;28;20044;-74
2021/05/27 07:03:59;;;;;;;17.02;7.70;;;11.70;99.90;;;11.78;81.63;101575.75;5092043;28;20044;-74
2021/05/27 07:06:28;;;;;;;21.38;8.00;;;11.80;99.90;;;11.98;81.02;101607.59;5073907;28;20386;-74
2021/05/27 07:08:56;;;;;;;25.15;8.45;;;11.80;99.90;;;11.92;80.88;101600.50;5092083;28;20036;-74
2021/05/27 07:11:24;;;;;;;22.67;8.00;;;11.80;99.90;;;11.92;80.94;101616.41;5092095;28;20036;-73
2021/05/27 07:13:52;;;;;;;20.30;7.78;;;11.70;99.90;;;12.03;80.78;101619.06;5092159;28;20056;-73
2021/05/27 07:16:20;;;;;;;21.08;8.50;;;11.80;99.90;;;12.03;81.26;101616.44;5092108;28;20097;-74
2021/05/27 07:18:49;;;;;;;24.20;9.05;;;11.90;99.90;;;11.90;81.48;101619.94;5091980;28;20082;-74
2021/05/27 07:21:17;;;;;;;32.78;9.90;;;11.80;99.90;;;11.82;82.25;101613.72;5091623;28;20059;-72
2021/05/27 07:23:46;;;;;;;30.67;9.57;;;11.70;99.90;;;11.78;82.62;101618.16;5091747;28;20032;-74
2021/05/27 07:26:14;;;;;;;26.38;9.23;;;11.70;99.90;;;11.77;82.90;101633.16;5091994;28;20040;-74
2021/05/27 07:28:42;;;;;;;28.17;10.38;;;11.70;99.90;;;11.76;83.21;101635.81;5073744;28;20060;-73
2021/05/27 07:31:10;;;;;;;24.42;8.80;;;11.70;99.90;;;11.76;82.84;101626.09;5091558;28;20439;-73
2021/05/27 07:33:40;;;;;;;25.45;9.45;;;11.70;99.90;;;11.82;82.59;101633.19;5091824;28;20044;-73
2021/05/27 07:36:08;;;;;;;22.55;8.40;;;11.70;99.90;;;11.78;82.33;101632.28;5091924;28;20098;-74
2021/05/27 07:38:36;;;;;;;26.67;9.82;;;11.70;99.90;;;11.81;83.16;101643.78;5095623;28;20048;-73
2021/05/27 07:41:06;;;;;;;27.52;9.68;;;11.60;99.90;;;12.02;82.50;101641.19;5095598;28;20558;-74
2021/05/27 07:43:34;;;;;;;25.37;8.80;;;11.80;99.90;;;11.97;82.25;101648.22;5095624;28;20048;-74
2021/05/27 07:46:02;;;;;;;21.75;9.27;;;11.80;99.90;;;11.97;82.11;101621.72;5095253;28;20040;-74
2021/05/27 07:48:30;;;;;;;20.42;8.82;;;11.90;99.90;;;12.19;81.77;101650.06;5095394;28;20097;-74
2021/05/27 07:51:05;;;;;;;24.92;9.50;;;12.00;99.90;;;12.23;81.54;101659.78;5095202;28;20055;-74
2021/05/27 07:53:34;;;;;;;19.33;8.38;;;12.10;99.90;;;11.84;81.83;101599.59;5095164;28;20044;-74
2021/05/27 07:56:03;;;;;;;24.95;9.10;;;12.00;99.90;;;12.15;82.02;101659.78;5095341;28;20474;-73
2021/05/27 07:58:30;;;;;;;20.98;8.98;;;12.00;99.90;;;12.26;81.79;101655.38;5095071;28;20398;-74
2021/05/27 08:00:59;;;;;;;25.27;7.97;;;12.10;99.90;;;12.06;81.88;101653.56;5095150;28;20052;-73
2021/05/27 08:03:27;;;;;;;24.27;8.75;;;12.00;99.90;;;12.12;81.66;101654.44;5095151;28;20044;-74
2021/05/27 08:05:54;;;;;;;19.05;8.38;;;12.00;99.90;;;12.04;81.58;101663.28;5095070;28;20074;-74
2021/05/27 08:08:23;;;;;;;21.38;8.90;;;11.90;99.90;;;12.09;82.20;101662.41;5094734;28;20378;-74
2021/05/27 08:10:52;;;;;;;25.05;8.68;;;11.90;99.90;;;12.12;81.63;101664.16;5076731;28;20048;-74
2021/05/27 08:13:20;;;;;;;22.58;9.50;;;11.90;99.90;;;12.05;82.04;101671.25;5094986;28;20048;-74
2021/05/27 08:15:48;;;;;;;22.02;8.93;;;11.90;99.90;;;12.04;81.76;101663.28;5094912;28;20043;-74
2021/05/27 08:18:16;;;;;;;23.75;8.93;;;11.90;99.90;;;12.01;81.99;101666.81;5094822;28;20366;-74
2021/05/27 08:20:44;;;;;;;22.85;9.45;;;11.80;99.90;;;11.85;81.96;101667.63;5094780;28;20036;-75
2021/05/27 08:23:12;;;;;;;25.83;9.30;;;11.80;99.90;;;11.96;82.19;101670.34;5094867;28;20073;-74
2021/05/27 08:25:44;;;;;;;22.00;9.13;;;11.80;99.90;;;11.93;82.39;101676.50;5094394;28;20389;-74
2021/05/27 08:28:12;;;;;;;23.88;9.13;;;11.80;99.90;;;12.05;82.20;101668.59;5094642;28;20062;-74
2021/05/27 08:30:40;;;;;;;25.73;9.52;;;11.80;99.90;;;11.99;82.49;101681.81;5094462;28;20048;-74
2021/05/27 08:33:08;;;;;;;24.75;9.70;;;11.80;99.90;;;11.44;82.58;101550.88;5076356;28;20052;-74
2021/05/27 08:35:37;;;;;;;24.25;9.32;;;11.90;99.90;;;12.02;81.86;101684.47;5094549;28;20052;-73
2021/05/27 08:38:05;;;;;;;22.10;9.52;;;11.90;99.90;;;12.15;82.17;101674.78;5076232;28;20055;-73
2021/05/27 08:40:36;;;;;;;24.17;9.32;;;12.00;99.90;;;11.95;81.96;101679.16;5094490;28;20052;-74
2021/05/27 08:43:06;;;;;;;21.75;8.82;;;11.80;99.90;;;12.02;82.26;101676.50;5094665;28;20434;-74
2021/05/27 08:45:37;;;;;;;30.75;8.88;;;11.90;99.90;;;12.03;81.80;101688.03;5094170;28;20044;-73
2021/05/27 08:48:11;;;;;;;23.98;9.68;;;11.80;99.90;;;12.06;81.85;101688.03;5093247;28;20044;-73
2021/05/27 08:50:44;;;;;;;26.98;9.52;;;11.80;99.90;;;11.99;81.72;101687.13;5094270;28;20044;-73
2021/05/27 08:53:14;;;;;;;36.83;9.25;;;11.90;99.90;;;12.07;81.64;101690.69;5094299;28;20044;-73
2021/05/27 08:55:43;;;;;;;26.20;10.45;;;11.90;99.90;;;12.08;81.79;101700.41;5094008;28;20093;-74
2021/05/27 08:58:12;;;;;;;25.85;9.98;;;11.90;99.90;;;12.17;81.45;101702.22;5075920;28;20085;-74
2021/05/27 09:00:40;;;;;;;22.35;9.30;;;12.00;99.90;;;12.14;82.14;101700.41;5094142;28;20044;-73
2021/05/27 09:03:10;;;;;;;27.10;10.55;;;12.00;99.90;;;12.01;81.80;101695.09;5093740;28;20437;-73
2021/05/27 09:05:39;;;;;;;28.35;10.52;;;11.90;99.90;;;12.08;81.79;101716.31;5093945;28;20118;-73
2021/05/27 09:08:08;;;;;;;26.70;9.90;;;11.90;99.90;;;12.07;82.18;101716.31;5075590;28;20105;-73
2021/05/27 09:10:46;;;;;;;26.50;9.88;;;11.90;99.90;;;12.19;81.89;101719.91;5093564;28;20438;-73
2021/05/27 09:13:18;;;;;;;25.25;9.55;;;12.00;99.90;;;11.92;82.19;101703.00;5093782;28;20101;-73
2021/05/27 09:15:48;;;;;;;30.80;11.10;;;12.00;99.90;;;12.04;82.60;101726.94;5093835;28;20048;-73
2021/05/27 09:18:29;;;;;;;30.42;10.52;;;11.90;99.90;;;12.00;82.84;101730.44;5093698;28;20097;-74
2021/05/27 09:20:57;;;;;;;31.52;11.77;;;11.90;99.90;;;12.08;83.33;101729.56;5093682;28;20052;-73
2021/05/27 09:23:25;;;;;;;42.60;12.40;;;11.90;99.90;;;11.83;83.80;101690.59;5093092;28;20127;-73
2021/05/27 09:25:59;;;;;;;38.63;12.20;;;11.90;99.90;;;12.09;83.33;101731.38;5075142;28;20413;-74
2021/05/27 09:28:28;;;;;;;30.95;10.77;;;11.90;99.90;;;11.98;83.36;101737.50;5093612;28;20097;-73
2021/05/27 09:30:59;;;;;;;35.25;11.70;;;11.80;99.90;;;12.32;82.96;101734.06;5093395;28;20052;-73
2021/05/27 09:33:33;;;;;;;40.30;12.40;;;12.00;99.90;;;12.16;82.36;101732.25;5093173;28;20484;-73
2021/05/27 09:36:06;;;;;;;37.35;12.07;;;12.10;99.90;;;12.13;82.36;101721.66;5093828;28;20056;-73
2021/05/27 09:38:36;;;;;;;40.05;11.80;;;12.00;99.90;;;12.17;82.87;101734.94;5093474;28;20467;-73
2021/05/27 09:41:23;;;;;;;38.90;11.73;;;12.00;99.90;;;12.15;82.65;101755.25;5093150;28;20413;-73
2021/05/27 09:43:54;;;;;;;28.58;11.95;;;12.00;99.90;;;12.14;82.57;101760.53;5093013;28;20097;-73
2021/05/27 09:46:24;;;;;;;41.78;12.10;;;12.00;99.90;;;12.13;82.08;101753.47;5074941;28;20550;-74
2021/05/27 09:49:04;;;;;;;34.38;11.73;;;12.00;99.90;;;12.18;81.60;101747.28;5092814;28;20353;-74
2021/05/27 09:51:33;;;;;;;32.58;11.43;;;12.10;99.90;;;12.18;81.08;101751.69;5092798;28;20473;-73
2021/05/27 09:54:01;;;;;;;34.28;11.77;;;12.00;99.90;;;12.36;80.93;101773.00;5074725;28;20062;-74
2021/05/27 09:56:34;;;;;;;31.60;10.75;;;12.10;99.90;;;12.34;80.80;101751.78;5093156;28;20043;-74
2021/05/27 09:59:09;;;;;;;28.10;10.25;;;12.20;99.90;;;12.38;80.54;101761.50;5092906;28;20048;-74
2021/05/27 10:01:38;;;;;;;;;;;12.30;99.90;;;12.38;79.94;101761.50;5093211;28;20105;-74
2021/05/27 10:04:13;;;;;;;28.58;10.98;;;12.20;99.90;;;12.41;78.84;101761.50;5092640;28;20135;-74
2021/05/27 10:06:42;;;;;;;27.67;11.13;;;12.30;99.90;;;12.40;79.06;101773.00;5092587;28;20048;-74
2021/05/27 10:09:11;;;;;;;35.90;12.38;;;12.20;99.90;;;12.37;80.09;101774.75;5092791;28;20075;-74
2021/05/27 10:11:40;;;;;;;37.05;12.52;;;12.20;99.90;;;12.33;80.46;101783.59;5092788;28;20044;-74
2021/05/27 10:14:10;;;;;;;33.95;12.23;;;12.20;99.90;;;12.32;80.85;101773.88;5092443;28;20089;-74
2021/05/27 10:16:38;;;;;;;29.85;10.07;;;12.10;99.90;;;12.24;80.57;101778.25;5092617;28;20055;-74
2021/05/27 10:19:07;;;;;;;32.13;10.27;;;12.10;99.90;;;12.34;80.16;101770.34;5092375;28;20052;-74
2021/05/27 10:21:38;;;;;;;22.73;9.38;;;12.10;99.90;;;12.37;79.81;101785.34;5092382;28;20047;-74
2021/05/27 10:24:08;;;;;;;24.90;9.80;;;12.20;99.90;;;12.61;79.62;101791.63;5092560;28;20085;-74